Time;durP1;ratioP1;P1;durP2;ratioP2;P2;SDS_P1;SDS_P2;PMS_P1;PMS_P2;Temp;Humidity;BMP_temperature;BMP_pressure;BME280_temperature;BME280_humidity;BME280_pressure;Samples;Min_cycle;Max_cycle;Signal;HPM_P1;HPM_P2
2022/08/18 00:00:47;;;;;;;12.82;8.93;;;20.70;99.90;;;;;;5036111;28;25089;-70
2022/08/18 00:03:13;;;;;;;17.63;9.60;;;20.80;99.90;;;;;;5039098;28;25062;-71
2022/08/18 00:05:39;;;;;;;14.18;8.90;;;20.80;99.90;;;;;;5035533;28;25057;-70
2022/08/18 00:08:06;;;;;;;16.65;9.40;;;20.70;99.90;;;;;;5035523;28;25142;-70
2022/08/18 00:10:32;;;;;;;14.77;8.88;;;20.70;99.90;;;;;;5032234;28;25153;-71
2022/08/18 00:12:58;;;;;;;14.70;8.85;;;20.70;99.90;;;;;;5027421;28;25065;-71
2022/08/18 00:15:25;;;;;;;15.90;9.25;;;20.70;99.90;;;;;;5035345;28;25101;-72
2022/08/18 00:17:51;;;;;;;16.27;9.05;;;20.70;99.90;;;;;;5032689;28;25127;-70
2022/08/18 00:20:20;;;;;;;14.70;8.15;;;20.70;99.90;;;;;;5044426;28;25063;-69
2022/08/18 00:22:46;;;;;;;14.40;8.50;;;20.70;99.90;;;;;;5040582;28;25062;-69
2022/08/18 00:25:14;;;;;;;14.90;9.13;;;20.80;99.90;;;;;;5034920;28;25074;-70
2022/08/18 00:27:40;;;;;;;15.18;9.82;;;20.70;99.90;;;;;;5031544;28;25071;-69
2022/08/18 00:30:09;;;;;;;11.45;8.57;;;20.70;99.90;;;;;;5034200;28;25060;-70
2022/08/18 00:32:38;;;;;;;12.23;9.70;;;20.70;99.90;;;;;;5030413;28;25081;-68
2022/08/18 00:35:17;;;;;;;14.20;9.90;;;20.70;99.90;;;;;;5031079;28;25059;-69
2022/08/18 00:37:43;;;;;;;12.38;8.13;;;20.70;99.90;;;;;;5037555;28;25170;-70
2022/08/18 00:40:12;;;;;;;15.65;8.48;;;20.70;99.90;;;;;;5036305;28;25082;-71
2022/08/18 00:42:46;;;;;;;14.02;9.02;;;20.70;99.90;;;;;;5038338;28;25044;-68
2022/08/18 00:45:15;;;;;;;13.05;7.68;;;20.70;99.90;;;;;;5039215;28;25070;-71
2022/08/18 00:47:41;;;;;;;12.43;8.05;;;20.70;99.90;;;;;;5032282;28;25067;-70
2022/08/18 00:50:08;;;;;;;13.55;8.48;;;20.70;99.90;;;;;;5039080;28;25105;-71
2022/08/18 00:52:35;;;;;;;9.70;8.07;;;20.60;99.90;;;;;;5041714;28;25060;-71
2022/08/18 00:55:02;;;;;;;13.15;8.80;;;20.60;99.90;;;;;;5038722;28;25076;-68
2022/08/18 00:57:30;;;;;;;17.23;8.73;;;20.50;99.90;;;;;;5038189;28;25103;-69
2022/08/18 01:00:10;;;;;;;13.88;9.40;;;20.50;99.90;;;;;;5035200;28;25056;-68
2022/08/18 01:02:44;;;;;;;15.68;10.00;;;20.60;99.90;;;;;;5040116;28;25091;-69
2022/08/18 01:05:59;;;;;;;21.55;11.45;;;20.80;99.90;;;;;;5032569;28;25062;-71
2022/08/18 01:08:25;;;;;;;10.80;8.13;;;20.90;99.90;;;;;;5026359;28;25093;-72
2022/08/18 01:10:51;;;;;;;13.15;8.63;;;20.90;99.90;;;;;;5032563;28;25362;-72
2022/08/18 01:13:17;;;;;;;13.38;10.02;;;20.80;99.90;;;;;;5043486;28;26359;-70
2022/08/18 01:15:43;;;;;;;14.13;8.90;;;20.60;99.90;;;;;;5043579;28;25116;-71
2022/08/18 01:23:54;;;;;;;18.95;9.57;;;20.80;99.90;;;;;;5028693;28;25051;-70
2022/08/18 01:26:23;;;;;;;16.95;9.85;;;20.80;99.90;;;;;;5038640;28;25085;-70
2022/08/18 01:28:49;;;;;;;18.52;10.30;;;20.70;99.90;;;;;;5045651;28;25078;-67
2022/08/18 01:31:37;;;;;;;16.40;10.13;;;20.80;99.90;;;;;;5043381;28;25074;-69
2022/08/18 01:34:05;;;;;;;17.02;10.32;;;20.80;99.90;;;;;;5033560;28;25174;-69
2022/08/18 01:36:46;;;;;;;15.75;10.90;;;20.80;99.90;;;;;;5032443;28;25143;-72
2022/08/18 01:39:12;;;;;;;18.38;10.88;;;20.70;99.90;;;;;;5040856;28;25051;-68
2022/08/18 01:41:39;;;;;;;18.00;11.32;;;20.60;99.90;;;;;;5029950;28;25165;-69
2022/08/18 01:44:07;;;;;;;20.08;12.88;;;20.70;99.90;;;;;;5029626;28;25080;-68
2022/08/18 01:46:34;;;;;;;17.35;11.32;;;20.70;99.90;;;;;;5028161;28;25084;-69
2022/08/18 01:49:00;;;;;;;16.30;11.13;;;20.70;99.90;;;;;;5027229;28;25070;-70
2022/08/18 01:51:31;;;;;;;18.52;11.73;;;20.70;99.90;;;;;;5036149;28;25060;-69
2022/08/18 01:53:57;;;;;;;19.40;11.82;;;20.80;99.90;;;;;;5036846;28;25154;-69
2022/08/18 01:56:26;;;;;;;22.38;12.48;;;20.50;99.90;;;;;;5034780;28;25107;-68
2022/08/18 01:58:53;;;;;;;22.17;13.65;;;20.40;99.90;;;;;;5039953;28;25069;-71
2022/08/18 02:01:20;;;;;;;21.35;12.90;;;20.40;99.90;;;;;;5034790;28;25080;-68
2022/08/18 02:03:51;;;;;;;21.17;12.73;;;20.50;99.90;;;;;;5034716;28;25065;-71
2022/08/18 02:06:18;;;;;;;22.92;14.18;;;20.40;99.90;;;;;;5033447;28;25102;-69
2022/08/18 02:08:45;;;;;;;21.98;13.00;;;20.30;99.90;;;;;;5041145;28;25082;-69
2022/08/18 02:11:11;;;;;;;23.45;14.57;;;20.30;99.90;;;;;;5044625;28;25077;-70
2022/08/18 02:13:37;;;;;;;21.73;14.07;;;20.20;99.90;;;;;;5031358;28;25100;-71
2022/08/18 02:16:03;;;;;;;22.17;13.38;;;20.30;99.90;;;;;;5037592;28;25172;-69
2022/08/18 02:18:32;;;;;;;23.65;12.75;;;20.40;99.90;;;;;;5034938;28;25101;-70
2022/08/18 02:21:04;;;;;;;26.17;12.65;;;20.60;99.90;;;;;;5039884;28;25053;-70
2022/08/18 02:23:30;;;;;;;26.23;13.35;;;20.60;99.90;;;;;;5042066;28;25067;-71
2022/08/18 02:25:56;;;;;;;22.92;13.02;;;20.50;99.90;;;;;;5039609;28;25162;-69
2022/08/18 02:28:22;;;;;;;20.30;14.00;;;20.50;99.90;;;;;;5045040;28;25284;-69
2022/08/18 02:30:47;;;;;;;22.13;13.43;;;20.60;99.90;;;;;;5048314;28;25085;-70
2022/08/18 02:33:13;;;;;;;24.20;12.48;;;20.60;99.90;;;;;;5043995;28;25079;-70
2022/08/18 02:35:39;;;;;;;22.33;13.85;;;20.70;99.90;;;;;;5056335;28;25160;-69
2022/08/18 02:38:06;;;;;;;24.27;13.90;;;20.60;99.90;;;;;;5048612;28;25059;-70
2022/08/18 02:40:34;;;;;;;26.92;14.63;;;20.50;99.90;;;;;;5047754;28;25100;-71
2022/08/18 02:43:08;;;;;;;26.02;14.88;;;20.40;99.90;;;;;;5053850;28;25084;-70
2022/08/18 02:45:36;;;;;;;27.02;16.42;;;20.50;99.90;;;;;;5054074;28;25088;-69
2022/08/18 02:48:03;;;;;;;23.48;14.30;;;20.70;99.90;;;;;;5060682;28;25056;-70
2022/08/18 02:50:28;;;;;;;24.85;15.18;;;20.70;99.90;;;;;;5051041;28;25071;-71
2022/08/18 02:52:54;;;;;;;25.38;14.95;;;20.80;99.90;;;;;;5049374;28;25051;-69
2022/08/18 02:55:21;;;;;;;25.70;16.15;;;20.70;99.90;;;;;;5041831;28;25053;-70
2022/08/18 02:57:47;;;;;;;21.90;15.00;;;20.80;99.90;;;;;;5043299;28;25140;-71
2022/08/18 03:00:16;;;;;;;24.17;15.85;;;20.70;99.90;;;;;;5042664;28;25079;-69
2022/08/18 03:02:47;;;;;;;32.80;17.23;;;20.70;99.90;;;;;;5036461;28;25056;-69
2022/08/18 03:05:13;;;;;;;32.78;16.52;;;20.50;99.90;;;;;;5028352;28;25067;-70
2022/08/18 03:07:39;;;;;;;27.15;17.52;;;20.50;99.90;;;;;;5037397;28;25118;-69
2022/08/18 03:10:05;;;;;;;33.28;16.98;;;20.50;99.90;;;;;;5044256;28;25116;-70
2022/08/18 03:12:31;;;;;;;30.27;17.67;;;20.50;99.90;;;;;;5038665;28;25063;-69
2022/08/18 03:14:57;;;;;;;31.45;16.80;;;20.60;99.90;;;;;;5038461;28;25059;-68
2022/08/18 03:17:22;;;;;;;28.13;17.92;;;20.60;99.90;;;;;;5039069;28;25083;-70
2022/08/18 03:19:48;;;;;;;30.20;17.15;;;20.50;99.90;;;;;;5040170;28;25098;-69
2022/08/18 03:22:14;;;;;;;37.83;19.35;;;20.50;99.90;;;;;;5044537;28;25156;-70
2022/08/18 03:24:39;;;;;;;33.92;18.75;;;20.50;99.90;;;;;;5038425;28;25115;-69
2022/08/18 03:27:06;;;;;;;35.97;19.33;;;20.30;99.90;;;;;;5039422;28;25058;-70
2022/08/18 03:29:33;;;;;;;33.97;20.25;;;20.20;99.90;;;;;;5044451;28;25106;-69
2022/08/18 03:32:05;;;;;;;34.90;20.17;;;20.30;99.90;;;;;;5045514;28;25085;-70
2022/08/18 03:34:41;;;;;;;34.92;19.73;;;20.30;99.90;;;;;;5035554;28;25064;-70
2022/08/18 03:37:07;;;;;;;35.55;21.20;;;20.20;99.90;;;;;;5046026;28;25071;-70
2022/08/18 03:39:33;;;;;;;30.83;19.02;;;20.30;99.90;;;;;;5049020;28;25068;-71
2022/08/18 03:41:59;;;;;;;38.55;21.50;;;20.30;99.90;;;;;;5040701;28;25067;-70
2022/08/18 03:44:30;;;;;;;31.88;20.15;;;20.40;99.90;;;;;;5039400;28;25110;-69
2022/08/18 03:46:56;;;;;;;34.13;19.03;;;20.40;99.90;;;;;;5040748;28;25072;-69
2022/08/18 03:49:23;;;;;;;36.67;20.45;;;20.40;99.90;;;;;;5030134;28;25156;-69
2022/08/18 03:51:50;;;;;;;33.15;19.05;;;20.50;99.90;;;;;;5044922;28;25072;-70
2022/08/18 03:54:17;;;;;;;38.58;19.88;;;20.50;99.90;;;;;;5034994;28;25143;-71
2022/08/18 03:56:44;;;;;;;39.05;20.73;;;20.60;99.90;;;;;;5040339;28;25068;-71
2022/08/18 03:59:22;;;;;;;32.20;19.00;;;20.60;99.90;;;;;;5044459;28;25066;-71
2022/08/18 04:01:50;;;;;;;33.28;19.17;;;20.60;99.90;;;;;;5032322;28;25124;-71
2022/08/18 04:04:21;;;;;;;31.23;18.35;;;20.50;99.90;;;;;;5041501;28;25088;-70
2022/08/18 04:06:53;;;;;;;32.85;19.40;;;20.60;99.90;;;;;;5044718;28;25056;-69
2022/08/18 04:09:19;;;;;;;;;;;20.60;99.90;;;;;;5044684;28;25073;-70
2022/08/18 04:11:45;;;;;;;36.83;18.17;;;20.60;99.90;;;;;;5041639;28;24060;-71
2022/08/18 04:14:14;;;;;;;31.27;17.73;;;20.50;99.90;;;;;;5042774;28;25057;-71
2022/08/18 04:16:40;;;;;;;29.67;17.08;;;20.40;99.90;;;;;;5041513;28;25083;-70
2022/08/18 04:19:07;;;;;;;27.50;16.40;;;20.40;99.90;;;;;;5039647;28;25070;-70
2022/08/18 04:21:37;;;;;;;30.05;16.73;;;20.40;99.90;;;;;;5044243;28;25098;-72
2022/08/18 04:24:04;;;;;;;26.48;15.43;;;20.60;99.90;;;;;;5037996;28;25100;-70
2022/08/18 04:26:32;;;;;;;24.48;15.43;;;20.60;99.90;;;;;;5041753;28;25072;-68
2022/08/18 04:29:00;;;;;;;25.38;15.25;;;20.60;99.90;;;;;;5038703;28;25052;-70
2022/08/18 04:31:26;;;;;;;25.88;13.82;;;20.70;99.90;;;;;;5039682;28;25048;-69
2022/08/18 04:33:51;;;;;;;30.88;16.25;;;20.70;99.90;;;;;;5036222;28;25122;-70
2022/08/18 04:36:17;;;;;;;32.33;16.88;;;20.80;99.90;;;;;;5041703;28;25070;-69
2022/08/18 04:38:43;;;;;;;28.55;15.32;;;20.80;99.90;;;;;;5035494;28;25157;-70
2022/08/18 04:41:12;;;;;;;29.13;15.27;;;20.80;99.90;;;;;;5027946;28;25119;-69
2022/08/18 04:43:38;;;;;;;37.20;16.75;;;20.70;99.90;;;;;;5038037;28;25054;-70
2022/08/18 04:46:05;;;;;;;30.17;14.60;;;20.70;99.90;;;;;;5033389;28;25075;-69
2022/08/18 04:48:40;;;;;;;29.13;15.85;;;20.60;99.90;;;;;;5031581;28;25174;-71
2022/08/18 04:51:11;;;;;;;28.08;15.10;;;20.60;99.90;;;;;;5035624;28;25075;-71
2022/08/18 04:53:44;;;;;;;25.77;15.57;;;20.70;99.90;;;;;;5031835;28;25086;-70
2022/08/18 04:56:20;;;;;;;31.00;15.70;;;20.60;99.90;;;;;;5032947;28;25068;-70
2022/08/18 04:58:51;;;;;;;23.85;15.20;;;20.70;99.90;;;;;;5043066;28;25090;-71
2022/08/18 05:01:21;;;;;;;25.10;14.82;;;20.60;99.90;;;;;;5042029;28;25126;-71
2022/08/18 05:03:49;;;;;;;28.35;15.48;;;20.60;99.90;;;;;;5037094;28;25068;-71
2022/08/18 05:06:15;;;;;;;28.20;15.07;;;20.70;99.90;;;;;;5039069;28;25100;-71
2022/08/18 05:08:41;;;;;;;21.10;13.13;;;20.70;99.90;;;;;;5037920;28;25116;-70
2022/08/18 05:11:07;;;;;;;20.95;13.45;;;20.70;99.90;;;;;;5040230;28;25099;-70
2022/08/18 05:13:32;;;;;;;26.75;14.65;;;20.70;99.90;;;;;;5032108;28;25108;-71
2022/08/18 05:16:02;;;;;;;25.00;14.85;;;20.90;99.90;;;;;;5031813;28;25094;-69
2022/08/18 05:18:33;;;;;;;25.17;13.93;;;20.60;99.90;;;;;;5034925;28;25113;-68
2022/08/18 05:21:00;;;;;;;26.33;14.98;;;20.50;99.90;;;;;;5030752;28;25124;-69
2022/08/18 05:23:28;;;;;;;22.02;14.38;;;20.60;99.90;;;;;;5030924;28;25077;-69
2022/08/18 05:26:02;;;;;;;25.95;14.40;;;20.70;99.90;;;;;;5031673;28;25130;-69
2022/08/18 05:28:29;;;;;;;30.83;14.98;;;20.70;99.90;;;;;;5035477;28;25056;-69
2022/08/18 05:30:56;;;;;;;24.70;13.77;;;20.70;99.90;;;;;;5030215;28;25048;-70
2022/08/18 05:33:22;;;;;;;18.73;12.02;;;20.90;99.90;;;;;;5037692;28;25060;-69
2022/08/18 05:36:02;;;;;;;20.73;13.13;;;20.90;99.90;;;;;;5032002;28;25072;-68
2022/08/18 05:39:10;;;;;;;23.75;13.70;;;20.90;99.90;;;;;;5036724;28;25056;-70
2022/08/18 05:41:52;;;;;;;20.80;13.15;;;20.80;99.90;;;;;;5030101;28;25155;-71
2022/08/18 05:44:20;;;;;;;;;;;20.90;99.90;;;;;;5036145;28;25098;-70
2022/08/18 05:46:53;;;;;;;22.27;11.82;;;21.10;99.90;;;;;;5030920;28;25055;-69
2022/08/18 05:49:20;;;;;;;20.17;11.98;;;21.20;99.90;;;;;;5025655;28;24948;-69
2022/08/18 05:51:49;;;;;;;24.10;13.73;;;21.30;99.90;;;;;;5038274;28;25171;-68
2022/08/18 05:57:08;;;;;;;16.38;11.15;;;21.50;99.90;;;;;;5041475;28;25074;-67
2022/08/18 05:59:38;;;;;;;15.77;9.95;;;21.40;99.90;;;;;;5031029;28;25064;-70
2022/08/18 06:02:12;;;;;;;24.65;11.38;;;21.60;99.90;;;;;;5030083;28;25235;-70
2022/08/18 06:04:46;;;;;;;18.10;9.80;;;21.60;99.90;;;;;;5043254;28;25169;-69
2022/08/18 06:07:21;;;;;;;13.07;8.82;;;21.60;99.90;;;;;;5032466;28;25070;-69
2022/08/18 06:09:50;;;;;;;15.80;9.95;;;21.70;99.90;;;;;;5037302;28;25065;-68
2022/08/18 06:12:28;;;;;;;15.93;9.75;;;21.50;99.90;;;;;;5035782;28;25082;-70
2022/08/18 06:15:06;;;;;;;16.75;10.63;;;21.60;99.90;;;;;;5037916;28;25145;-68
2022/08/18 06:17:41;;;;;;;14.35;9.13;;;21.50;99.90;;;;;;5045420;28;25059;-68
2022/08/18 06:20:16;;;;;;;20.23;8.10;;;21.70;99.90;;;;;;5036953;28;25078;-70
2022/08/18 06:23:35;;;;;;;12.10;8.90;;;21.70;99.90;;;;;;5045772;28;25146;-70
2022/08/18 06:26:40;;;;;;;10.55;7.35;;;21.70;99.90;;;;;;4947896;28;25078;-70
2022/08/18 06:29:26;;;;;;;9.00;6.72;;;21.80;99.90;;;;;;5034949;28;25050;-70
2022/08/18 06:32:04;;;;;;;10.40;6.57;;;21.80;99.90;;;;;;5046577;28;25067;-67
2022/08/18 06:34:39;;;;;;;9.57;6.20;;;21.50;99.90;;;;;;5035831;28;25060;-69
2022/08/18 06:40:27;;;;;;;11.38;6.43;;;21.60;99.90;;;;;;5042777;28;25108;-68
2022/08/18 06:43:06;;;;;;;11.82;7.28;;;21.70;99.90;;;;;;5037969;28;25052;-71
2022/08/18 06:45:36;;;;;;;11.02;6.47;;;21.70;99.90;;;;;;5046589;28;25092;-71
2022/08/18 06:48:29;;;;;;;10.73;6.07;;;21.80;99.90;;;;;;5044865;28;25063;-71
2022/08/18 06:51:02;;;;;;;9.30;6.07;;;21.80;99.90;;;;;;5036977;28;25063;-69
2022/08/18 06:53:54;;;;;;;8.75;5.72;;;21.70;99.90;;;;;;5033896;28;25066;-70
2022/08/18 06:56:40;;;;;;;8.57;5.57;;;21.80;99.90;;;;;;5042198;28;25152;-71
2022/08/18 06:59:15;;;;;;;6.45;4.65;;;21.60;99.90;;;;;;5029661;28;25078;-71
2022/08/18 07:01:42;;;;;;;10.70;6.18;;;21.50;99.90;;;;;;5045119;28;25157;-71
2022/08/18 07:04:08;;;;;;;7.63;5.18;;;21.50;99.90;;;;;;5041170;28;24753;-71
2022/08/18 07:06:34;;;;;;;9.82;5.97;;;21.50;99.90;;;;;;5040481;28;25143;-70
2022/08/18 07:09:23;;;;;;;7.63;5.38;;;21.50;99.90;;;;;;5049398;28;25151;-71
2022/08/18 07:12:07;;;;;;;12.32;6.55;;;21.60;99.90;;;;;;5041742;28;25133;-71
2022/08/18 07:14:45;;;;;;;8.35;5.22;;;21.60;99.90;;;;;;5048048;28;25072;-69
2022/08/18 07:17:20;;;;;;;7.03;5.20;;;21.60;99.90;;;;;;5034626;28;25147;-72
2022/08/18 07:19:55;;;;;;;8.60;6.18;;;21.70;99.90;;;;;;5030224;28;25113;-70
2022/08/18 07:22:21;;;;;;;6.78;5.50;;;21.70;99.90;;;;;;5043342;28;25041;-71
2022/08/18 07:24:55;;;;;;;10.20;7.32;;;21.50;99.90;;;;;;5031968;28;25073;-71
2022/08/18 07:27:41;;;;;;;7.07;5.10;;;21.50;99.90;;;;;;5031815;28;25070;-73
2022/08/18 07:30:13;;;;;;;7.50;5.05;;;21.50;99.90;;;;;;5039657;28;25143;-73
2022/08/18 07:32:48;;;;;;;10.20;6.22;;;21.70;99.90;;;;;;5039826;28;25064;-72
2022/08/18 07:35:19;;;;;;;10.85;5.03;;;22.00;99.90;;;;;;5031422;28;25137;-71
2022/08/18 07:38:16;;;;;;;6.68;4.45;;;22.00;99.90;;;;;;5035429;28;25068;-69
2022/08/18 07:40:56;;;;;;;6.00;4.72;;;22.30;99.90;;;;;;5035550;28;25065;-70
2022/08/18 07:43:50;;;;;;;10.40;4.50;;;22.10;99.90;;;;;;5041901;28;25131;-71
2022/08/18 07:46:37;;;;;;;5.78;4.60;;;22.40;99.90;;;;;;5034860;28;25110;-71
2022/08/18 07:49:05;;;;;;;7.60;4.95;;;22.90;99.90;;;;;;5033624;28;25128;-70
2022/08/18 07:52:05;;;;;;;7.38;5.47;;;23.10;99.90;;;;;;5039998;28;25119;-68
2022/08/18 07:54:41;;;;;;;6.28;4.50;;;23.00;99.90;;;;;;5036859;28;25074;-70
2022/08/18 07:57:20;;;;;;;6.13;4.05;;;22.60;99.90;;;;;;5040307;28;25511;-71
2022/08/18 08:00:02;;;;;;;6.43;4.30;;;22.60;99.90;;;;;;5042285;28;25118;-70
2022/08/18 08:02:49;;;;;;;;;;;22.70;99.90;;;;;;5033799;28;25145;-70
2022/08/18 08:05:37;;;;;;;7.10;4.70;;;23.10;99.90;;;;;;5036870;28;25066;-72
2022/08/18 08:08:34;;;;;;;5.70;4.78;;;23.20;99.90;;;;;;5043105;28;25108;-70
2022/08/18 08:11:40;;;;;;;7.78;4.65;;;23.20;99.90;;;;;;5034449;28;25100;-70
2022/08/18 08:14:44;;;;;;;6.97;3.95;;;22.50;99.90;;;;;;5035051;28;25155;-71
2022/08/18 08:17:10;;;;;;;4.60;3.35;;;22.10;99.90;;;;;;5038694;28;25152;-70
2022/08/18 08:20:01;;;;;;;5.05;3.72;;;21.70;99.90;;;;;;5033717;28;25122;-72
2022/08/18 08:22:38;;;;;;;4.53;4.05;;;21.60;99.90;;;;;;5039449;28;25065;-71
2022/08/18 08:25:24;;;;;;;4.35;3.83;;;21.80;99.90;;;;;;5039372;28;25116;-71
2022/08/18 08:28:17;;;;;;;4.55;3.50;;;22.30;99.90;;;;;;5034709;28;25082;-70
2022/08/18 08:30:49;;;;;;;;;;;22.10;99.90;;;;;;5038847;28;25105;-71
2022/08/18 08:33:25;;;;;;;;;;;21.90;99.90;;;;;;5038144;28;25059;-72
2022/08/18 08:36:03;;;;;;;4.75;3.63;;;21.70;99.90;;;;;;5043536;28;25106;-71
2022/08/18 08:38:43;;;;;;;4.35;3.85;;;21.70;99.90;;;;;;5031897;28;25061;-72
2022/08/18 08:41:36;;;;;;;6.45;4.57;;;21.70;99.90;;;;;;5027349;28;25068;-72
2022/08/18 08:44:13;;;;;;;10.07;4.63;;;21.70;99.90;;;;;;5038393;28;25067;-72
2022/08/18 08:47:17;;;;;;;7.63;4.57;;;21.60;99.90;;;;;;5032002;28;25046;-72
2022/08/18 08:50:09;;;;;;;5.18;4.15;;;21.70;99.90;;;;;;5027144;28;25067;-71
2022/08/18 08:52:58;;;;;;;5.97;4.18;;;21.90;99.90;;;;;;5035596;28;25147;-72
2022/08/18 08:55:30;;;;;;;4.65;3.97;;;22.00;99.90;;;;;;5036260;28;25132;-72
2022/08/18 08:58:18;;;;;;;6.03;3.80;;;22.30;99.90;;;;;;5043130;28;25102;-70
2022/08/18 09:00:57;;;;;;;6.57;3.78;;;22.50;99.90;;;;;;5039598;28;25095;-71
2022/08/18 09:03:22;;;;;;;7.03;3.72;;;22.60;99.90;;;;;;5035434;28;25049;-71
2022/08/18 09:06:25;;;;;;;6.97;3.80;;;23.00;99.90;;;;;;5032361;28;25150;-72
2022/08/18 09:09:13;;;;;;;5.43;3.80;;;23.00;99.90;;;;;;5042923;28;25061;-73
2022/08/18 09:12:08;;;;;;;5.50;4.30;;;23.30;99.90;;;;;;5034865;28;25213;-73
2022/08/18 09:15:15;;;;;;;5.50;4.88;;;23.60;99.90;;;;;;5038804;28;25114;-73
2022/08/18 09:18:00;;;;;;;3.83;3.42;;;24.30;99.90;;;;;;5030128;28;25063;-72
2022/08/18 09:21:17;;;;;;;4.43;3.55;;;24.00;99.90;;;;;;5038809;28;25107;-73
2022/08/18 09:23:46;;;;;;;5.72;3.50;;;23.40;99.90;;;;;;5037135;28;25070;-71
2022/08/18 09:26:26;;;;;;;3.88;3.10;;;23.50;99.90;;;;;;5040044;28;25057;-72
2022/08/18 09:29:04;;;;;;;4.13;3.25;;;23.70;99.90;;;;;;5034425;28;25135;-72
2022/08/18 09:31:30;;;;;;;3.88;3.47;;;24.00;99.90;;;;;;5035130;28;25129;-72
2022/08/18 09:34:24;;;;;;;4.75;3.47;;;23.70;99.90;;;;;;5041977;28;25077;-70
2022/08/18 09:37:22;;;;;;;2.55;2.33;;;23.90;99.90;;;;;;5035610;28;25123;-72
2022/08/18 09:43:14;;;;;;;4.10;2.85;;;24.20;99.90;;;;;;5074527;28;25148;-68
2022/08/18 09:45:45;;;;;;;2.70;2.42;;;24.40;99.90;;;;;;5076839;28;25062;-64
2022/08/18 09:48:11;;;;;;;6.43;3.33;;;24.10;99.90;;;;;;5082288;28;25053;-66
2022/08/18 09:50:52;;;;;;;4.68;3.47;;;23.80;99.90;;;;;;5077190;28;25118;-68
2022/08/18 09:54:12;;;;;;;4.45;3.13;;;23.30;99.90;;;;;;5046330;22;25080;-70
2022/08/18 09:56:49;;;;;;;4.40;3.25;;;23.20;99.90;;;;;;4948022;28;25126;-70
2022/08/18 09:59:33;;;;;;;3.83;2.80;;;23.30;99.90;;;;;;4961662;28;25075;-69
2022/08/18 10:02:27;;;;;;;5.50;3.28;;;23.70;99.90;;;;;;4978802;28;25053;-73
2022/08/18 10:05:18;;;;;;;5.47;3.25;;;24.30;99.90;;;;;;5001899;28;25071;-70
2022/08/18 10:08:00;;;;;;;3.15;2.78;;;24.60;99.90;;;;;;5020248;28;25071;-72
2022/08/18 10:10:46;;;;;;;4.35;2.85;;;24.10;99.90;;;;;;5002557;28;25092;-71
2022/08/18 10:13:46;;;;;;;8.30;3.53;;;24.50;99.90;;;;;;5026651;28;25058;-74
2022/08/18 10:16:50;;;;;;;3.97;3.58;;;24.80;99.90;;;;;;5035927;28;25073;-70
2022/08/18 10:19:39;;;;;;;7.93;3.20;;;25.40;99.90;;;;;;5048650;28;25050;-73
2022/08/18 10:22:09;;;;;;;5.70;3.10;;;24.80;99.90;;;;;;5020423;28;25066;-74
2022/08/18 10:25:01;;;;;;;4.20;2.75;;;23.90;99.90;;;;;;5014374;28;25107;-72
2022/08/18 10:27:46;;;;;;;4.35;3.03;;;23.40;99.90;;;;;;5001441;28;25102;-72
2022/08/18 10:30:32;;;;;;;3.63;2.97;;;23.60;99.90;;;;;;5000642;28;25080;-73
2022/08/18 10:33:00;;;;;;;3.75;3.08;;;24.10;99.90;;;;;;4996125;28;25094;-71
2022/08/18 10:35:35;;;;;;;6.53;2.72;;;24.30;99.90;;;;;;5007584;28;25060;-70
2022/08/18 10:38:17;;;;;;;5.40;3.35;;;23.90;99.90;;;;;;5019319;28;25061;-72
2022/08/18 10:40:52;;;;;;;;;;;23.70;99.90;;;;;;5017454;28;25051;-71
2022/08/18 10:43:29;;;;;;;3.03;2.80;;;23.70;99.90;;;;;;5000808;28;25047;-70
2022/08/18 10:45:56;;;;;;;5.10;2.67;;;23.80;99.90;;;;;;4995666;28;25140;-71
2022/08/18 10:48:37;;;;;;;3.13;2.80;;;23.90;99.90;;;;;;5010061;28;25102;-71
2022/08/18 10:51:16;;;;;;;3.22;2.63;;;24.20;99.90;;;;;;5001570;28;25076;-70
2022/08/18 10:53:54;;;;;;;4.00;2.88;;;24.30;99.90;;;;;;5004654;28;25142;-69
2022/08/18 10:56:50;;;;;;;7.95;3.95;;;24.60;99.90;;;;;;4994726;28;25068;-71
2022/08/18 10:59:34;;;;;;;2.30;2.10;;;25.10;99.90;;;;;;5006354;28;25104;-69
2022/08/18 11:02:03;;;;;;;4.45;2.70;;;25.60;99.90;;;;;;5002594;28;25062;-73
2022/08/18 11:04:48;;;;;;;7.00;3.03;;;25.40;99.90;;;;;;4995203;28;25047;-71
2022/08/18 11:07:41;;;;;;;5.90;2.75;;;25.00;99.90;;;;;;5011327;28;25125;-72
2022/08/18 11:10:23;;;;;;;4.13;2.08;;;25.00;99.90;;;;;;4992544;28;25067;-70
2022/08/18 11:13:07;;;;;;;2.83;2.25;;;25.00;99.90;;;;;;4999359;28;25171;-72
2022/08/18 11:15:56;;;;;;;3.50;2.28;;;25.40;99.90;;;;;;5004100;28;25142;-70
2022/08/18 11:18:39;;;;;;;2.55;2.28;;;25.60;99.90;;;;;;5006556;28;25093;-71
2022/08/18 11:21:31;;;;;;;4.32;2.30;;;25.00;99.90;;;;;;5003602;28;25097;-71
2022/08/18 11:24:03;;;;;;;;;;;25.30;99.90;;;;;;5003383;28;25058;-72
2022/08/18 11:26:30;;;;;;;12.57;2.30;;;25.30;99.90;;;;;;5004756;28;24862;-71
2022/08/18 11:28:56;;;;;;;5.03;2.60;;;24.40;99.90;;;;;;4998239;28;25153;-72
2022/08/18 11:31:23;;;;;;;4.10;2.53;;;24.20;99.90;;;;;;5007321;28;25071;-72
2022/08/18 11:33:49;;;;;;;3.05;2.65;;;24.40;99.90;;;;;;5002972;28;25063;-72
2022/08/18 11:36:15;;;;;;;3.35;2.33;;;24.70;99.90;;;;;;5010689;28;25055;-71
2022/08/18 11:38:56;;;;;;;4.13;2.38;;;24.30;99.90;;;;;;5017579;28;25149;-72
2022/08/18 11:41:26;;;;;;;2.28;2.10;;;24.10;99.90;;;;;;5018870;28;25059;-71
2022/08/18 11:43:58;;;;;;;3.63;1.92;;;23.90;99.90;;;;;;5006609;28;25058;-73
2022/08/18 11:46:37;;;;;;;3.90;2.00;;;24.40;99.90;;;;;;5014144;28;25069;-72
2022/08/18 11:49:32;;;;;;;4.35;2.00;;;25.10;99.90;;;;;;5004438;28;25066;-71
2022/08/18 11:52:23;;;;;;;3.45;2.33;;;25.60;99.90;;;;;;4995458;28;25151;-71
2022/08/18 11:54:50;;;;;;;3.67;2.75;;;26.30;99.90;;;;;;5002837;28;25145;-71
2022/08/18 11:57:30;;;;;;;3.85;2.40;;;26.00;99.90;;;;;;5017849;28;25053;-71
2022/08/18 11:59:56;;;;;;;3.17;2.70;;;25.60;99.90;;;;;;5003987;28;25068;-73
2022/08/18 12:02:24;;;;;;;6.40;2.38;;;25.60;99.90;;;;;;5002973;28;25072;-71
2022/08/18 12:05:01;;;;;;;2.50;1.92;;;26.20;99.90;;;;;;5017097;28;25147;-70
2022/08/18 12:07:34;;;;;;;2.03;1.85;;;25.80;99.90;;;;;;5009359;28;25104;-70
2022/08/18 12:10:23;;;;;;;3.63;2.25;;;25.90;99.90;;;;;;5000650;28;25106;-71
2022/08/18 12:12:51;;;;;;;2.30;2.10;;;25.30;99.90;;;;;;5012937;28;25068;-70
2022/08/18 12:15:27;;;;;;;2.38;2.10;;;24.50;99.90;;;;;;5008938;28;25077;-70
2022/08/18 12:17:52;;;;;;;5.07;1.98;;;24.40;99.90;;;;;;5001140;28;25122;-71
2022/08/18 12:20:18;;;;;;;2.88;2.60;;;24.90;99.90;;;;;;5008931;28;25145;-70
2022/08/18 12:22:44;;;;;;;4.63;2.60;;;25.00;99.90;;;;;;4994826;28;25080;-71
2022/08/18 12:25:14;;;;;;;7.20;3.78;;;24.80;99.90;;;;;;4989495;28;25076;-69
2022/08/18 12:27:41;;;;;;;3.88;2.83;;;24.30;99.90;;;;;;5002268;28;25071;-71
2022/08/18 12:30:08;;;;;;;3.28;2.58;;;24.10;99.90;;;;;;4994928;28;25088;-72
2022/08/18 12:32:35;;;;;;;5.25;3.30;;;24.40;99.90;;;;;;4992181;28;25070;-71
2022/08/18 12:35:03;;;;;;;4.10;2.95;;;25.00;99.90;;;;;;5005813;28;25137;-70
2022/08/18 12:37:29;;;;;;;3.05;2.70;;;25.10;99.90;;;;;;5004738;28;25062;-70
2022/08/18 12:39:59;;;;;;;8.98;2.47;;;25.80;99.90;;;;;;5004976;28;25062;-71
2022/08/18 12:42:25;;;;;;;2.78;2.58;;;26.00;99.90;;;;;;5002705;28;25076;-69
2022/08/18 12:44:51;;;;;;;4.03;2.50;;;26.30;99.90;;;;;;5016943;28;25074;-71
2022/08/18 12:47:25;;;;;;;2.10;1.90;;;27.10;99.90;;;;;;5013326;28;25113;-70
2022/08/18 12:49:51;;;;;;;2.75;2.35;;;27.20;99.90;;;;;;5000845;28;25161;-70
2022/08/18 12:52:18;;;;;;;2.10;1.90;;;26.10;99.90;;;;;;5011466;28;25054;-69
2022/08/18 12:54:45;;;;;;;4.20;2.70;;;25.60;99.90;;;;;;4997790;28;25091;-70
2022/08/18 12:57:19;;;;;;;2.80;2.60;;;25.10;99.90;;;;;;4999764;28;25106;-69
2022/08/18 12:59:45;;;;;;;4.75;2.40;;;24.90;99.90;;;;;;5003547;28;25124;-71
2022/08/18 13:02:11;;;;;;;3.45;2.83;;;24.60;99.90;;;;;;5009196;28;25075;-69
2022/08/18 13:04:36;;;;;;;3.10;2.80;;;24.40;99.90;;;;;;5006009;28;25140;-71
2022/08/18 13:07:03;;;;;;;3.13;2.65;;;24.50;99.90;;;;;;5008891;28;25171;-69
2022/08/18 13:09:31;;;;;;;2.92;2.33;;;25.00;99.90;;;;;;4993460;28;25135;-71
2022/08/18 13:11:57;;;;;;;2.90;2.45;;;25.60;99.90;;;;;;5010214;28;25125;-71
2022/08/18 13:14:23;;;;;;;4.47;2.67;;;25.90;99.90;;;;;;4993337;28;25179;-70
2022/08/18 13:16:51;;;;;;;2.63;2.20;;;26.10;99.90;;;;;;4993875;28;25080;-70
2022/08/18 13:19:16;;;;;;;4.95;2.22;;;26.20;99.90;;;;;;5006573;28;25093;-72
2022/08/18 13:21:42;;;;;;;3.05;1.80;;;26.30;99.90;;;;;;5011195;28;25097;-70
2022/08/18 13:24:09;;;;;;;4.45;1.88;;;26.50;99.90;;;;;;4996640;28;25052;-70
2022/08/18 13:26:38;;;;;;;2.13;1.70;;;26.80;99.90;;;;;;5000092;28;25056;-70
2022/08/18 13:29:04;;;;;;;2.13;1.65;;;26.90;99.90;;;;;;5000337;28;25070;-70
2022/08/18 13:31:30;;;;;;;2.20;1.98;;;26.10;99.90;;;;;;5001854;28;25059;-72